Dorothy Ann — WDE8761 — position and weather

sailwx.info

Track history (hours):
 
Tides and Currents Weather Stations Pressure Air Temp Water Temp Dewpoint Dewpoint Depression Visibility Wind Speed Wind Dir Waves Ship Positions

Dorothy Ann

Owner: THE INTERLAKE STEAMSHIP COMPANY, Middleburg Heights, OH. More information available from US FCC via Universal Licensing System and Coast Guard Vessel Documentation Center.

Last reported at 2016-May-01 00:00 UTC. Time now 2016-May-01 02:21 UTC.
Position N 44°06' W 083°30'.

Length 215 m; draft 7 m.

Type: Cargo ship. MMSI: 367409260.

Wind from 050 at 18 knots

Barometer 1018.4 mb
Air temperature 5.8 ° C
Water temperature 11.8 ° C

Date/timePositionNaut miles runAvg speedWind from/ knotsBaromVisibWave heightAir tempDewpointWater temp
2016-May-01 00:00N 44°06' W 083°30'7 7.4 050 / 181018.4 5.8 11.8
2016-Apr-30 23:00N 44°00' W 083°36'2010.0 060 / 211018.8 7.1 10.8
2016-Apr-30 21:00N 43°42' W 083°48'6 6.0 060 / 221018.8 8.4 12.3
2016-Apr-30 20:00N 43°36' W 083°48'7 3.7 040 / 171019.1 8.6 14.4
2016-Apr-30 18:00N 43°30' W 083°54'0 0.0 030 / 91020.8 11.6 13.9
2016-Apr-30 17:00N 43°30' W 083°54'0 0.0 130 / 81021.1 13.1 14.0
2016-Apr-30 16:00N 43°30' W 083°54'0 0.0 090 / 81021.5 11.9 13.9
2016-Apr-30 15:00N 43°30' W 083°54'0 0.0 070 / 71021.5 10.2 13.8
2016-Apr-30 14:00N 43°30' W 083°54'6 3.0 070 / 61021.8 8.2 13.6
2016-Apr-30 12:00N 43°36' W 083°54'4 1.4 050 / 101022.8 6.8 14.0
2016-Apr-30 09:00N 43°36' W 083°48'0 0.0 050 / 51022.1 5.4 14.2
2016-Apr-30 08:00N 43°36' W 083°48'6 6.0 090 / 81021.8 7.3 13.9
2016-Apr-30 07:00N 43°42' W 083°48'7 7.4 110 / 61021.8 7.3 12.2
2016-Apr-30 06:00N 43°48' W 083°42'7 7.4 100 / 61021.8 6.7 10.9
2016-Apr-30 05:00N 43°54' W 083°36'2010.0 080 / 51021.8 6.2 11.0
2016-Apr-30 03:00N 44°12' W 083°24'4 4.3 020 / 41022.8 5.3 10.4
2016-Apr-30 02:00N 44°12' W 083°18'7 7.4 320 / 41022.5 4.2 7.2
2016-Apr-30 01:00N 44°18' W 083°12'1212.0 030 / 81021.8 4.4 6.8
2016-Apr-30 00:00N 44°30' W 083°12'6 6.0 040 / 61021.8 4.7 6.9
2016-Apr-29 23:00N 44°36' W 083°12'6 6.0 050 / 71021.1 4.7 6.8
2016-Apr-29 22:00N 44°42' W 083°12'24 8.1 060 / 81021.1 4.7 6.8
2016-Apr-29 19:00N 45°06' W 083°06'7 7.3 020 / 61021.1 3.5 6.6
2016-Apr-29 18:00N 45°12' W 083°12'7 7.3 030 / 81020.8 4.5 6.5
2016-Apr-29 17:00N 45°18' W 083°18'10 5.2 040 / 61021.1 3.7 6.5
2016-Apr-29 15:00N 45°24' W 083°30'14 7.0 050 / 91021.5 3.1 6.3
2016-Apr-29 13:00N 45°30' W 083°48'1010.3 090 / 31021.5 3.0 6.0
2016-Apr-29 12:00N 45°36' W 084°00'3 7.5 070 / 41021.1 3.1 5.9
2016-Apr-29 11:33N 45°36' W 084°05'7 7.4
2016-Apr-29 10:33N 45°40' W 084°14'7 7.0
2016-Apr-29 09:33N 45°41' W 084°24'4 7.9
2016-Apr-29 09:00N 45°42' W 084°30'3 7.3 050 / 21020.1 3.4 7.1
2016-Apr-29 08:33N 45°44' W 084°33'7 7.4
2016-Apr-29 07:33N 45°48' W 084°42'4 7.5
2016-Apr-29 07:00N 45°48' W 084°48'3 7.7 110 / 81019.4 4.4 6.8
2016-Apr-29 06:33N 45°50' W 084°52'610.0
2016-Apr-29 06:00N 45°48' W 085°00'3 7.2 050 / 81019.4 4.1 6.8
2016-Apr-29 05:33N 45°51' W 085°02'4 7.4
2016-Apr-29 05:00N 45°54' W 085°06'512.2 090 / 111019.8 4.9 7.2
2016-Apr-29 04:33N 45°52' W 085°13'7 7.2
2016-Apr-29 03:33N 45°53' W 085°23'5 9.0
2016-Apr-29 03:00N 45°54' W 085°30'3 5.9 080 / 151019.8 5.6 7.3
2016-Apr-29 02:30N 45°54' W 085°34'7 7.3
2016-Apr-29 01:33N 45°55' W 085°44'7 6.6
2016-Apr-29 00:33N 45°58' W 085°53'3 4.6
2016-Apr-29 00:00N 46°00' W 085°54'2 5.1 080 / 61019.1 7.1 9.7
2016-Apr-28 23:33N 45°58' W 085°52'2 3.9
2016-Apr-28 23:00N 46°00' W 085°54'2 4.9 120 / 101019.1 7.1 10.0
2016-Apr-28 22:33N 45°58' W 085°52'0 0.0
2016-Apr-28 21:33N 45°58' W 085°52'2 3.8
2016-Apr-28 21:00N 46°00' W 085°54'2 5.1 110 / 141018.8 5.5 9.7
2016-Apr-28 20:33N 45°58' W 085°52'2 3.9
2016-Apr-28 20:00N 46°00' W 085°54'2 5.1 120 / 151018.8 5.7 9.6
2016-Apr-28 19:33N 45°58' W 085°52'2 3.9
2016-Apr-28 19:00N 46°00' W 085°54'2 5.1 110 / 141019.4 5.3 9.5
2016-Apr-28 18:33N 45°58' W 085°52'2 3.9
2016-Apr-28 18:00N 46°00' W 085°54'2 5.0 110 / 171019.4 5.2 9.3
2016-Apr-28 17:33N 45°58' W 085°52'0 0.0
2016-Apr-28 16:33N 45°58' W 085°52'2 3.8
2016-Apr-28 16:00N 46°00' W 085°54'2 5.0 100 / 201019.1 5.3 9.0
2016-Apr-28 15:33N 45°58' W 085°52'2 3.8
2016-Apr-28 15:00N 46°00' W 085°54'3 7.8 110 / 211019.4 4.5 8.7
2016-Apr-28 14:33N 45°57' W 085°53'3 5.2
2016-Apr-28 14:00N 45°54' W 085°54'714.7 100 / 261018.8 4.0 6.8
2016-Apr-28 13:33N 45°48' W 085°57'10 9.7
2016-Apr-28 12:33N 45°39' W 086°02'10 9.7
2016-Apr-28 11:33N 45°30' W 086°06'10 9.8
2016-Apr-28 10:33N 45°20' W 086°09'10 9.8
2016-Apr-28 09:33N 45°10' W 086°12'3510.0
2016-Apr-28 06:00N 44°36' W 086°24'3110.4 060 / 141015.7 5.7 7.1
2016-Apr-28 03:00N 44°06' W 086°36'6 6.0 060 / 141014.7 7.2 7.0
2016-Apr-28 02:00N 44°00' W 086°36'18 9.0 060 / 201013.3 8.5 7.4
2016-Apr-28 00:00N 43°42' W 086°36'1212.0 020 / 181013.3 5.2 7.2
2016-Apr-27 23:00N 43°30' W 086°36'2010.0 1014.0 5.3 7.4
2016-Apr-27 21:00N 43°12' W 086°24'7 7.4 090 / 171014.0 13.7 8.2
2016-Apr-27 20:00N 43°06' W 086°18'4 2.2 080 / 181013.7 13.5 12.1
2016-Apr-27 18:00N 43°06' W 086°12'0 0.0 080 / 131014.7 13.1 16.9
2016-Apr-27 17:00N 43°06' W 086°12'0 0.0 080 / 141015.4 11.6 16.8
2016-Apr-27 16:00N 43°06' W 086°12'0 0.0 070 / 141015.4 10.1 16.6
2016-Apr-27 15:00N 43°06' W 086°12'9 4.4 100 / 181015.0 9.0 16.6
2016-Apr-27 13:00N 43°06' W 086°24'1212.0 080 / 141015.7 5.4 8.1
2016-Apr-27 12:00N 43°18' W 086°24'7 7.4 080 / 131016.4 3.5 8.0
2016-Apr-27 11:00N 43°24' W 086°30'1312.8 080 / 131016.4 2.8 7.3
2016-Apr-27 10:00N 43°36' W 086°36'6 6.0 060 / 121016.7 3.9 7.2
2016-Apr-27 09:00N 43°42' W 086°36'6 6.0 050 / 101017.1 3.7 7.0
2016-Apr-27 08:00N 43°48' W 086°36'1212.0 060 / 111017.4 3.8 7.2
2016-Apr-27 07:00N 44°00' W 086°36'1312.8 070 / 131016.7 4.9 7.6
2016-Apr-27 06:00N 44°12' W 086°30'24 8.1 030 / 121016.7 10.1 6.9
2016-Apr-27 03:00N 44°36' W 086°24'1610.1 020 / 121017.1 6.8 7.1
2016-Apr-27 01:25N 44°51' W 086°17'3 6.7
2016-Apr-27 01:00N 44°54' W 086°18'612.9 020 / 141016.4 9.5 7.3
2016-Apr-27 00:33N 44°59' W 086°15'712.6
2016-Apr-27 00:00N 45°06' W 086°12'3 6.1 040 / 121016.4 5.0 6.9
2016-Apr-26 23:33N 45°09' W 086°13'3 6.2
2016-Apr-26 23:00N 45°12' W 086°12'613.4 040 / 81017.1 5.2 7.0
2016-Apr-26 22:33N 45°18' W 086°11'9 9.4
2016-Apr-26 21:33N 45°27' W 086°08'9 9.3
2016-Apr-26 20:33N 45°36' W 086°06'610.5
2016-Apr-26 20:00N 45°42' W 086°06'4 9.7 110 / 81017.1 4.4 6.7
2016-Apr-26 19:33N 45°45' W 086°01'9 9.3
2016-Apr-26 18:33N 45°53' W 085°54'6 5.8
2016-Apr-26 17:33N 45°58' W 085°52'2 3.8
2016-Apr-26 17:00N 46°00' W 085°54'2 5.0 140 / 121016.7 5.0 8.8
2016-Apr-26 16:33N 45°58' W 085°52'0 0.0
2016-Apr-26 15:33N 45°58' W 085°52'2 3.8
2016-Apr-26 15:00N 46°00' W 085°54'2 5.1 080 / 101016.0 5.2 8.8
2016-Apr-26 14:33N 45°58' W 085°52'2 3.9
2016-Apr-26 14:00N 46°00' W 085°54'2 5.0 030 / 81016.0 2.8 8.8
2016-Apr-26 13:33N 45°58' W 085°52'2 3.8
2016-Apr-26 13:00N 46°00' W 085°54'2 5.0 020 / 61015.7 1.5 8.7
2016-Apr-26 12:33N 45°58' W 085°52'2 3.8
2016-Apr-26 12:00N 46°00' W 085°54'2 5.1 040 / 91014.3 1.0 8.8
2016-Apr-26 11:33N 45°58' W 085°52'0 0.0
2016-Apr-26 10:33N 45°58' W 085°52'2 3.9
2016-Apr-26 10:00N 46°00' W 085°54'2 5.0 040 / 91013.3 1.0 8.6
2016-Apr-26 09:33N 45°58' W 085°52'2 3.8
2016-Apr-26 09:00N 46°00' W 085°54'2 5.5 050 / 91012.3 1.2 8.5
2016-Apr-26 08:33N 45°58' W 085°53'4 7.0
2016-Apr-26 08:00N 45°54' W 085°54'3 6.5 060 / 221011.3 1.4 6.7
2016-Apr-26 07:33N 45°56' W 085°52'0 0.0
2016-Apr-26 06:33N 45°56' W 085°52'3 5.0
2016-Apr-26 06:00N 45°54' W 085°54'3 6.5 060 / 221011.0 1.5 6.8
2016-Apr-26 05:33N 45°56' W 085°52'0 0.0
2016-Apr-26 04:30N 45°56' W 085°52'3 5.5
2016-Apr-26 04:00N 45°54' W 085°54'3 6.4 070 / 261010.6 2.0 6.9
2016-Apr-26 03:33N 45°56' W 085°52'3 5.1
2016-Apr-26 03:00N 45°54' W 085°54'3 6.4 080 / 331010.3 1.6 7.0
2016-Apr-26 02:33N 45°56' W 085°52'3 5.1
2016-Apr-26 02:00N 45°54' W 085°54'3 6.6 070 / 301010.3 1.9 7.0
2016-Apr-26 01:33N 45°56' W 085°52'0 0.0
2016-Apr-26 00:33N 45°56' W 085°52'3 5.0
2016-Apr-26 00:00N 45°54' W 085°54'3 6.3 080 / 321009.6 1.9 7.0
2016-Apr-25 23:33N 45°56' W 085°52'0 0.0
2016-Apr-25 22:33N 45°56' W 085°52'3 5.0
2016-Apr-25 22:00N 45°54' W 085°54'3 6.5 100 / 351010.6 1.9 7.1
2016-Apr-25 21:33N 45°56' W 085°52'3 5.0
2016-Apr-25 21:00N 45°54' W 085°54'3 6.5 090 / 391010.6 1.7 7.0
2016-Apr-25 20:33N 45°56' W 085°52'3 5.0
2016-Apr-25 20:00N 45°54' W 085°54'3 6.6 080 / 431009.9 1.2 7.0
2016-Apr-25 19:33N 45°56' W 085°52'0 0.0
2016-Apr-25 18:32N 45°56' W 085°52'3 5.2
2016-Apr-25 18:00N 45°54' W 085°54'3 6.6 090 / 341013.0 1.7 7.1
2016-Apr-25 17:33N 45°56' W 085°52'3 5.0
2016-Apr-25 17:00N 45°54' W 085°54'3 6.2 090 / 341012.7 2.0 7.1
2016-Apr-25 16:32N 45°56' W 085°52'0 0.0
2016-Apr-25 15:29N 45°56' W 085°52'0 0.0
2016-Apr-25 14:33N 45°56' W 085°52'3 5.0
2016-Apr-25 14:00N 45°54' W 085°54'3 6.1 080 / 381014.0 2.1 7.3
2016-Apr-25 13:32N 45°56' W 085°52'3 5.3
2016-Apr-25 13:00N 45°54' W 085°54'3 6.5 090 / 331014.0 2.7 7.4
2016-Apr-25 12:33N 45°56' W 085°52'0 0.0
2016-Apr-25 11:33N 45°56' W 085°52'3 5.0
2016-Apr-25 11:00N 45°54' W 085°54'3 6.5 090 / 311014.7 2.8 7.2
2016-Apr-25 10:33N 45°56' W 085°52'3 5.0
2016-Apr-25 10:00N 45°54' W 085°54'3 6.6 100 / 311014.7 2.9 7.2
2016-Apr-25 09:33N 45°56' W 085°52'0 0.0
2016-Apr-25 08:33N 45°56' W 085°52'3 5.0
2016-Apr-25 08:00N 45°54' W 085°54'3 6.5 090 / 311015.0 2.7 7.3
2016-Apr-25 07:33N 45°56' W 085°52'3 5.0
2016-Apr-25 07:00N 45°54' W 085°54'0 0.0 090 / 271015.7 3.1 7.4
2016-Apr-25 06:00N 45°54' W 085°54'3 4.8 090 / 251016.4 3.6 7.4
2016-Apr-25 05:24N 45°56' W 085°52'3 6.9
2016-Apr-25 05:00N 45°54' W 085°54'3 5.3 090 / 221016.4 4.1 7.4
2016-Apr-25 04:27N 45°56' W 085°52'3 6.1
2016-Apr-25 04:00N 45°54' W 085°54'3 5.1 080 / 221016.7 4.1 7.4
2016-Apr-25 03:26N 45°56' W 085°52'3 6.3
2016-Apr-25 03:00N 45°54' W 085°54'3 6.1 080 / 201016.7 3.7 7.5
2016-Apr-25 02:31N 45°56' W 085°52'3 5.3
2016-Apr-25 02:00N 45°54' W 085°54'3 6.3 080 / 221017.1 3.4 7.7
2016-Apr-25 01:32N 45°56' W 085°52'3 5.1
2016-Apr-25 01:00N 45°54' W 085°54'3 6.5 090 / 201017.4 3.2 8.2
2016-Apr-25 00:33N 45°56' W 085°52'3 5.0
2016-Apr-25 00:00N 45°54' W 085°54'3 6.1 080 / 211017.1 3.4 8.2
2016-Apr-24 23:32N 45°56' W 085°52'3 5.3
2016-Apr-24 23:00N 45°54' W 085°54'3 5.3 080 / 231017.1 3.4 8.3
2016-Apr-24 22:28N 45°56' W 085°52'3 6.0
2016-Apr-24 22:00N 45°54' W 085°54'3 5.9 080 / 251017.7 2.9 8.5
2016-Apr-24 21:31N 45°56' W 085°52'3 5.4
2016-Apr-24 21:00N 45°54' W 085°54'3 6.2 090 / 251018.4 2.5 8.6
2016-Apr-24 20:32N 45°56' W 085°52'0 0.0
2016-Apr-24 19:32N 45°56' W 085°52'3 5.2
2016-Apr-24 19:00N 45°54' W 085°54'3 6.4 090 / 261019.8 3.0 8.8
2016-Apr-24 18:33N 45°56' W 085°52'3 5.0
2016-Apr-24 18:00N 45°54' W 085°54'0 0.0 090 / 221019.1 3.6 8.5
2016-Apr-24 16:00N 45°54' W 085°54'2 5.7 080 / 251019.1 3.9 8.1
2016-Apr-24 15:33N 45°56' W 085°53'2 4.3
2016-Apr-24 15:00N 45°54' W 085°54'715.5 090 / 201019.1 3.4 6.4
2016-Apr-24 14:33N 45°48' W 085°57'610.6
2016-Apr-24 14:00N 45°42' W 086°00'4 8.8 080 / 181018.4 4.0 6.4
2016-Apr-24 13:33N 45°38' W 086°02'4 6.5
2016-Apr-24 13:00N 45°36' W 086°06'715.9 100 / 141018.8 3.6 6.6
2016-Apr-24 12:33N 45°29' W 086°06'10 9.8
2016-Apr-24 11:33N 45°20' W 086°09'2610.2
2016-Apr-24 09:00N 44°54' W 086°18'6 6.0 130 / 111018.4 5.8 6.8
2016-Apr-24 08:00N 44°48' W 086°18'1312.7 070 / 101018.4 5.5 7.1
2016-Apr-24 07:00N 44°36' W 086°24'1312.7 130 / 101018.4 5.7 7.1
2016-Apr-24 06:00N 44°24' W 086°30'19 9.3 110 / 111019.1 5.6 7.0
2016-Apr-24 04:00N 44°06' W 086°36'1212.0 090 / 131019.4 6.1 7.0
2016-Apr-24 03:00N 43°54' W 086°36'6 6.0 080 / 111019.8 6.0 7.5
2016-Apr-24 02:00N 43°48' W 086°36'1212.0 040 / 131019.8 6.6 7.0
2016-Apr-24 01:00N 43°36' W 086°36'7 7.4 030 / 141019.4 6.1 6.9
2016-Apr-24 00:00N 43°30' W 086°30'1212.0 010 / 121019.1 7.2 7.3
2016-Apr-23 23:00N 43°18' W 086°30'1110.6 1019.4 6.2 8.4
2016-Apr-23 22:00N 43°12' W 086°18'7 7.4 290 / 101020.1 9.2 14.2
2016-Apr-23 21:00N 43°18' W 086°12'0 0.0 240 / 71020.8 12.4 14.2
2016-Apr-23 18:00N 43°18' W 086°12'14 4.8 250 / 111022.8 10.0 13.5
2016-Apr-23 15:00N 43°24' W 086°30'24 8.1 290 / 81024.5 5.2 7.8
2016-Apr-23 12:00N 43°48' W 086°36'6 6.0 050 / 71023.5 3.9 7.0
2016-Apr-23 11:00N 43°54' W 086°36'1212.0 040 / 71023.5 3.2 6.7
2016-Apr-23 10:00N 44°06' W 086°36'1312.7 030 / 81022.8 3.2 6.9
2016-Apr-23 09:00N 44°18' W 086°30'7 7.4 040 / 101022.8 3.3 6.9
2016-Apr-23 08:00N 44°24' W 086°24'6 6.0 030 / 91022.8 3.3 6.9
2016-Apr-23 07:00N 44°30' W 086°24'916.5 040 / 91022.8 3.4 7.1
2016-Apr-23 06:28N 44°38' W 086°21'4 9.0
2016-Apr-23 06:00N 44°42' W 086°18'510.5 040 / 121022.8 3.2 7.5
2016-Apr-23 05:33N 44°47' W 086°19'2 2.7
2016-Apr-23 05:00N 44°48' W 086°18'818.1 030 / 171023.2 3.3 6.9
2016-Apr-23 04:33N 44°56' W 086°16'4 7.8
2016-Apr-23 04:00N 45°00' W 086°18'613.1 020 / 171022.8 4.1 6.8
2016-Apr-23 03:33N 45°05' W 086°14'712.7
2016-Apr-23 03:00N 45°12' W 086°12'2 4.8 010 / 171022.8 3.4 6.9
2016-Apr-23 02:33N 45°14' W 086°12'9 9.4
2016-Apr-23 01:33N 45°23' W 086°09'9 9.3
2016-Apr-23 00:33N 45°32' W 086°06'9 9.2
2016-Apr-22 23:33N 45°41' W 086°03'2 4.4
2016-Apr-22 23:00N 45°42' W 086°00'715.4 350 / 201021.8 5.1 6.4
2016-Apr-22 22:33N 45°46' W 085°52'4 6.4
2016-Apr-22 22:00N 45°48' W 085°48'512.6 350 / 171021.5 6.2 6.3
2016-Apr-22 21:33N 45°51' W 085°41'9 8.6
2016-Apr-22 20:33N 45°53' W 085°29'4 6.6
2016-Apr-22 20:00N 45°54' W 085°24'512.2 350 / 211019.8 6.4 6.7
2016-Apr-22 19:33N 45°53' W 085°17'3 6.1
2016-Apr-22 19:00N 45°54' W 085°12'614.1 310 / 111019.8 5.6 6.3
2016-Apr-22 18:33N 45°51' W 085°04'4 7.8
2016-Apr-22 18:00N 45°48' W 085°00'614.3 310 / 161019.4 9.2 6.1
2016-Apr-22 17:33N 45°50' W 084°51'9 8.6
2016-Apr-22 16:33N 45°50' W 084°39'9 9.0
2016-Apr-22 15:33N 45°53' W 084°27'611.2
2016-Apr-22 15:00N 45°54' W 084°18'3 7.3 020 / 131018.1 4.7 5.9
2016-Apr-22 14:33N 45°56' W 084°14'3 3.4
2016-Apr-22 13:33N 45°59' W 084°17'1 2.5
2016-Apr-22 13:00N 46°00' W 084°18'1 3.2 010 / 91016.7 3.2 8.7
2016-Apr-22 12:33N 45°59' W 084°17'1 2.5
2016-Apr-22 12:00N 46°00' W 084°18'1 3.2 350 / 81016.4 3.4 8.7
2016-Apr-22 11:33N 45°59' W 084°17'1 2.5
2016-Apr-22 11:00N 46°00' W 084°18'1 3.2 010 / 101014.7 3.9 9.0
2016-Apr-22 10:33N 45°59' W 084°17'1 2.5
2016-Apr-22 10:00N 46°00' W 084°18'1 3.2 360 / 61013.7 5.0 9.3
2016-Apr-22 09:33N 45°59' W 084°17'1 2.5
2016-Apr-22 09:00N 46°00' W 084°18'1 3.2 010 / 61013.0 5.7 9.1
2016-Apr-22 08:33N 45°59' W 084°17'1 2.5
2016-Apr-22 08:00N 46°00' W 084°18'1 3.3 010 / 61013.0 6.9 9.6
2016-Apr-22 07:33N 45°59' W 084°17'1 2.5
2016-Apr-22 07:00N 46°00' W 084°18'1 3.2 010 / 41012.3 7.2 9.7
2016-Apr-22 06:33N 45°59' W 084°17'1 2.6
2016-Apr-22 06:00N 46°00' W 084°18'1 3.3 300 / 91011.6 5.6 9.8
2016-Apr-22 05:33N 45°59' W 084°17'1 2.5
2016-Apr-22 05:00N 46°00' W 084°18'1 3.3 230 / 21011.3 5.2 9.8
2016-Apr-22 04:33N 45°59' W 084°17'0 0.0
2016-Apr-22 03:33N 45°59' W 084°17'1 2.5
2016-Apr-22 03:00N 46°00' W 084°18'1 3.2 1011.0 6.5 9.8
2016-Apr-22 02:33N 45°59' W 084°17'1 2.5
2016-Apr-22 02:00N 46°00' W 084°18'1 3.2 030 / 31011.0 5.8 9.5
2016-Apr-22 01:33N 45°59' W 084°17'1 2.5
2016-Apr-22 01:00N 46°00' W 084°18'613.3 290 / 21010.3 5.8 7.4
2016-Apr-22 00:33N 45°55' W 084°13'5 8.8
2016-Apr-22 00:00N 45°54' W 084°06'613.4 060 / 131009.3 3.4 5.6
2016-Apr-21 23:33N 45°49' W 084°02'610.6
2016-Apr-21 23:00N 45°48' W 083°54'1312.7 020 / 61009.3 3.1 5.8
2016-Apr-21 22:00N 45°36' W 083°48'1010.3 160 / 61008.6 4.1 5.7
2016-Apr-21 21:00N 45°30' W 083°36'1010.3 140 / 171008.6 6.9 5.9
2016-Apr-21 20:00N 45°24' W 083°24'17 8.7 150 / 191009.6 8.9 5.8
2016-Apr-21 18:00N 45°12' W 083°06'1212.0 200 / 81011.0 5.1 6.1
2016-Apr-21 17:00N 45°00' W 083°06'1312.7 180 / 101011.6 4.9 6.0
2016-Apr-21 16:00N 44°48' W 083°00'7 7.4 150 / 121012.3 6.4 6.1
2016-Apr-21 15:00N 44°42' W 082°54'1312.7 170 / 61013.0 4.9 6.2
2016-Apr-21 14:00N 44°30' W 082°48'6 6.0 120 / 121013.3 4.6 6.0
2016-Apr-21 13:00N 44°24' W 082°48'3310.9 140 / 51013.7 8.3 5.8
2016-Apr-21 10:00N 43°54' W 082°30'1212.0 220 / 71015.7 9.7 6.0
2016-Apr-21 09:00N 43°42' W 082°30'18 9.0 160 / 121015.4 9.6 6.2
2016-Apr-21 07:00N 43°24' W 082°30'1312.8 120 / 41015.7 7.2 6.7
2016-Apr-21 06:00N 43°12' W 082°24'4 7.8 170 / 41016.4 9.4 7.2
2016-Apr-21 05:27N 43°08' W 082°25'2 4.3
2016-Apr-21 05:00N 43°06' W 082°24'6 6.0 160 / 11017.4 8.9 8.7
2016-Apr-21 04:00N 43°00' W 082°24'1312.8 140 / 91018.1 12.5 8.8
2016-Apr-21 03:00N 42°48' W 082°30'2 4.7 130 / 61018.4 12.4 9.0
2016-Apr-21 02:32N 42°46' W 082°28'5 8.3
2016-Apr-21 02:00N 42°42' W 082°30'3 6.7 130 / 101019.1 12.3 9.0
2016-Apr-21 01:33N 42°39' W 082°31'3 5.6
2016-Apr-21 01:00N 42°36' W 082°30'612.3 130 / 71019.4 13.7 8.7
2016-Apr-21 00:30N 42°33' W 082°37'5 9.1
2016-Apr-21 00:00N 42°30' W 082°42'   140 / 161019.2 12.9 9.0
Track history (hours):
 
Tides and Currents Weather Stations Pressure Air Temp Water Temp Dewpoint Dewpoint Depression Visibility Wind Speed Wind Dir Waves Ship Positions

Dorothy Ann

Owner: THE INTERLAKE STEAMSHIP COMPANY, Middleburg Heights, OH. More information available from US FCC via Universal Licensing System and Coast Guard Vessel Documentation Center.

Last reported at 2016-May-01 00:00 UTC. Time now 2016-May-01 02:21 UTC.
Position N 44°06' W 083°30'.

Length 215 m; draft 7 m.

Type: Cargo ship. MMSI: 367409260.

Wind from 050 at 18 knots

Barometer 1018.4 mb
Air temperature 5.8 ° C
Water temperature 11.8 ° C

Date/timePositionNaut miles runAvg speedWind from/ knotsBaromVisibWave heightAir tempDewpointWater temp
2016-May-01 00:00N 44°06' W 083°30'7 7.4 050 / 181018.4 5.8 11.8
2016-Apr-30 23:00N 44°00' W 083°36'2010.0 060 / 211018.8 7.1 10.8
2016-Apr-30 21:00N 43°42' W 083°48'6 6.0 060 / 221018.8 8.4 12.3
2016-Apr-30 20:00N 43°36' W 083°48'7 3.7 040 / 171019.1 8.6 14.4
2016-Apr-30 18:00N 43°30' W 083°54'0 0.0 030 / 91020.8 11.6 13.9
2016-Apr-30 17:00N 43°30' W 083°54'0 0.0 130 / 81021.1 13.1 14.0
2016-Apr-30 16:00N 43°30' W 083°54'0 0.0 090 / 81021.5 11.9 13.9
2016-Apr-30 15:00N 43°30' W 083°54'0 0.0 070 / 71021.5 10.2 13.8
2016-Apr-30 14:00N 43°30' W 083°54'6 3.0 070 / 61021.8 8.2 13.6
2016-Apr-30 12:00N 43°36' W 083°54'4 1.4 050 / 101022.8 6.8 14.0
2016-Apr-30 09:00N 43°36' W 083°48'0 0.0 050 / 51022.1 5.4 14.2
2016-Apr-30 08:00N 43°36' W 083°48'6 6.0 090 / 81021.8 7.3 13.9
2016-Apr-30 07:00N 43°42' W 083°48'7 7.4 110 / 61021.8 7.3 12.2
2016-Apr-30 06:00N 43°48' W 083°42'7 7.4 100 / 61021.8 6.7 10.9
2016-Apr-30 05:00N 43°54' W 083°36'2010.0 080 / 51021.8 6.2 11.0
2016-Apr-30 03:00N 44°12' W 083°24'4 4.3 020 / 41022.8 5.3 10.4
2016-Apr-30 02:00N 44°12' W 083°18'7 7.4 320 / 41022.5 4.2 7.2
2016-Apr-30 01:00N 44°18' W 083°12'1212.0 030 / 81021.8 4.4 6.8
2016-Apr-30 00:00N 44°30' W 083°12'6 6.0 040 / 61021.8 4.7 6.9
2016-Apr-29 23:00N 44°36' W 083°12'6 6.0 050 / 71021.1 4.7 6.8
2016-Apr-29 22:00N 44°42' W 083°12'24 8.1 060 / 81021.1 4.7 6.8
2016-Apr-29 19:00N 45°06' W 083°06'7 7.3 020 / 61021.1 3.5 6.6
2016-Apr-29 18:00N 45°12' W 083°12'7 7.3 030 / 81020.8 4.5 6.5
2016-Apr-29 17:00N 45°18' W 083°18'10 5.2 040 / 61021.1 3.7 6.5
2016-Apr-29 15:00N 45°24' W 083°30'14 7.0 050 / 91021.5 3.1 6.3
2016-Apr-29 13:00N 45°30' W 083°48'1010.3 090 / 31021.5 3.0 6.0
2016-Apr-29 12:00N 45°36' W 084°00'3 7.5 070 / 41021.1 3.1 5.9
2016-Apr-29 11:33N 45°36' W 084°05'7 7.4
2016-Apr-29 10:33N 45°40' W 084°14'7 7.0
2016-Apr-29 09:33N 45°41' W 084°24'4 7.9
2016-Apr-29 09:00N 45°42' W 084°30'3 7.3 050 / 21020.1 3.4 7.1
2016-Apr-29 08:33N 45°44' W 084°33'7 7.4
2016-Apr-29 07:33N 45°48' W 084°42'4 7.5
2016-Apr-29 07:00N 45°48' W 084°48'3 7.7 110 / 81019.4 4.4 6.8
2016-Apr-29 06:33N 45°50' W 084°52'610.0
2016-Apr-29 06:00N 45°48' W 085°00'3 7.2 050 / 81019.4 4.1 6.8
2016-Apr-29 05:33N 45°51' W 085°02'4 7.4
2016-Apr-29 05:00N 45°54' W 085°06'512.2 090 / 111019.8 4.9 7.2
2016-Apr-29 04:33N 45°52' W 085°13'7 7.2
2016-Apr-29 03:33N 45°53' W 085°23'5 9.0
2016-Apr-29 03:00N 45°54' W 085°30'3 5.9 080 / 151019.8 5.6 7.3
2016-Apr-29 02:30N 45°54' W 085°34'7 7.3
2016-Apr-29 01:33N 45°55' W 085°44'7 6.6
2016-Apr-29 00:33N 45°58' W 085°53'3 4.6
2016-Apr-29 00:00N 46°00' W 085°54'2 5.1 080 / 61019.1 7.1 9.7
2016-Apr-28 23:33N 45°58' W 085°52'2 3.9
2016-Apr-28 23:00N 46°00' W 085°54'2 4.9 120 / 101019.1 7.1 10.0
2016-Apr-28 22:33N 45°58' W 085°52'0 0.0
2016-Apr-28 21:33N 45°58' W 085°52'2 3.8
2016-Apr-28 21:00N 46°00' W 085°54'2 5.1 110 / 141018.8 5.5 9.7
2016-Apr-28 20:33N 45°58' W 085°52'2 3.9
2016-Apr-28 20:00N 46°00' W 085°54'2 5.1 120 / 151018.8 5.7 9.6
2016-Apr-28 19:33N 45°58' W 085°52'2 3.9
2016-Apr-28 19:00N 46°00' W 085°54'2 5.1 110 / 141019.4 5.3 9.5
2016-Apr-28 18:33N 45°58' W 085°52'2 3.9
2016-Apr-28 18:00N 46°00' W 085°54'2 5.0 110 / 171019.4 5.2 9.3
2016-Apr-28 17:33N 45°58' W 085°52'0 0.0
2016-Apr-28 16:33N 45°58' W 085°52'2 3.8
2016-Apr-28 16:00N 46°00' W 085°54'2 5.0 100 / 201019.1 5.3 9.0
2016-Apr-28 15:33N 45°58' W 085°52'2 3.8
2016-Apr-28 15:00N 46°00' W 085°54'3 7.8 110 / 211019.4 4.5 8.7
2016-Apr-28 14:33N 45°57' W 085°53'3 5.2
2016-Apr-28 14:00N 45°54' W 085°54'714.7 100 / 261018.8 4.0 6.8
2016-Apr-28 13:33N 45°48' W 085°57'10 9.7
2016-Apr-28 12:33N 45°39' W 086°02'10 9.7
2016-Apr-28 11:33N 45°30' W 086°06'10 9.8
2016-Apr-28 10:33N 45°20' W 086°09'10 9.8
2016-Apr-28 09:33N 45°10' W 086°12'3510.0
2016-Apr-28 06:00N 44°36' W 086°24'3110.4 060 / 141015.7 5.7 7.1
2016-Apr-28 03:00N 44°06' W 086°36'6 6.0 060 / 141014.7 7.2 7.0
2016-Apr-28 02:00N 44°00' W 086°36'18 9.0 060 / 201013.3 8.5 7.4
2016-Apr-28 00:00N 43°42' W 086°36'1212.0 020 / 181013.3 5.2 7.2
2016-Apr-27 23:00N 43°30' W 086°36'2010.0 1014.0 5.3 7.4
2016-Apr-27 21:00N 43°12' W 086°24'7 7.4 090 / 171014.0 13.7 8.2
2016-Apr-27 20:00N 43°06' W 086°18'4 2.2 080 / 181013.7 13.5 12.1
2016-Apr-27 18:00N 43°06' W 086°12'0 0.0 080 / 131014.7 13.1 16.9
2016-Apr-27 17:00N 43°06' W 086°12'0 0.0 080 / 141015.4 11.6 16.8
2016-Apr-27 16:00N 43°06' W 086°12'0 0.0 070 / 141015.4 10.1 16.6
2016-Apr-27 15:00N 43°06' W 086°12'9 4.4 100 / 181015.0 9.0 16.6
2016-Apr-27 13:00N 43°06' W 086°24'1212.0 080 / 141015.7 5.4 8.1
2016-Apr-27 12:00N 43°18' W 086°24'7 7.4 080 / 131016.4 3.5 8.0
2016-Apr-27 11:00N 43°24' W 086°30'1312.8 080 / 131016.4 2.8 7.3
2016-Apr-27 10:00N 43°36' W 086°36'6 6.0 060 / 121016.7 3.9 7.2
2016-Apr-27 09:00N 43°42' W 086°36'6 6.0 050 / 101017.1 3.7 7.0
2016-Apr-27 08:00N 43°48' W 086°36'1212.0 060 / 111017.4 3.8 7.2
2016-Apr-27 07:00N 44°00' W 086°36'1312.8 070 / 131016.7 4.9 7.6
2016-Apr-27 06:00N 44°12' W 086°30'24 8.1 030 / 121016.7 10.1 6.9
2016-Apr-27 03:00N 44°36' W 086°24'1610.1 020 / 121017.1 6.8 7.1
2016-Apr-27 01:25N 44°51' W 086°17'3 6.7
2016-Apr-27 01:00N 44°54' W 086°18'612.9 020 / 141016.4 9.5 7.3
2016-Apr-27 00:33N 44°59' W 086°15'712.6
2016-Apr-27 00:00N 45°06' W 086°12'3 6.1 040 / 121016.4 5.0 6.9
2016-Apr-26 23:33N 45°09' W 086°13'3 6.2
2016-Apr-26 23:00N 45°12' W 086°12'613.4 040 / 81017.1 5.2 7.0
2016-Apr-26 22:33N 45°18' W 086°11'9 9.4
2016-Apr-26 21:33N 45°27' W 086°08'9 9.3
2016-Apr-26 20:33N 45°36' W 086°06'610.5
2016-Apr-26 20:00N 45°42' W 086°06'4 9.7 110 / 81017.1 4.4 6.7
2016-Apr-26 19:33N 45°45' W 086°01'9 9.3
2016-Apr-26 18:33N 45°53' W 085°54'6 5.8
2016-Apr-26 17:33N 45°58' W 085°52'2 3.8
2016-Apr-26 17:00N 46°00' W 085°54'2 5.0 140 / 121016.7 5.0 8.8
2016-Apr-26 16:33N 45°58' W 085°52'0 0.0
2016-Apr-26 15:33N 45°58' W 085°52'2 3.8
2016-Apr-26 15:00N 46°00' W 085°54'2 5.1 080 / 101016.0 5.2 8.8
2016-Apr-26 14:33N 45°58' W 085°52'2 3.9
2016-Apr-26 14:00N 46°00' W 085°54'2 5.0 030 / 81016.0 2.8 8.8
2016-Apr-26 13:33N 45°58' W 085°52'2 3.8
2016-Apr-26 13:00N 46°00' W 085°54'2 5.0 020 / 61015.7 1.5 8.7
2016-Apr-26 12:33N 45°58' W 085°52'2 3.8
2016-Apr-26 12:00N 46°00' W 085°54'2 5.1 040 / 91014.3 1.0 8.8
2016-Apr-26 11:33N 45°58' W 085°52'0 0.0
2016-Apr-26 10:33N 45°58' W 085°52'2 3.9
2016-Apr-26 10:00N 46°00' W 085°54'2 5.0 040 / 91013.3 1.0 8.6
2016-Apr-26 09:33N 45°58' W 085°52'2 3.8
2016-Apr-26 09:00N 46°00' W 085°54'2 5.5 050 / 91012.3 1.2 8.5
2016-Apr-26 08:33N 45°58' W 085°53'4 7.0
2016-Apr-26 08:00N 45°54' W 085°54'3 6.5 060 / 221011.3 1.4 6.7
2016-Apr-26 07:33N 45°56' W 085°52'0 0.0
2016-Apr-26 06:33N 45°56' W 085°52'3 5.0
2016-Apr-26 06:00N 45°54' W 085°54'3 6.5 060 / 221011.0 1.5 6.8
2016-Apr-26 05:33N 45°56' W 085°52'0 0.0
2016-Apr-26 04:30N 45°56' W 085°52'3 5.5
2016-Apr-26 04:00N 45°54' W 085°54'3 6.4 070 / 261010.6 2.0 6.9
2016-Apr-26 03:33N 45°56' W 085°52'3 5.1
2016-Apr-26 03:00N 45°54' W 085°54'3 6.4 080 / 331010.3 1.6 7.0
2016-Apr-26 02:33N 45°56' W 085°52'3 5.1
2016-Apr-26 02:00N 45°54' W 085°54'3 6.6 070 / 301010.3 1.9 7.0
2016-Apr-26 01:33N 45°56' W 085°52'0 0.0
2016-Apr-26 00:33N 45°56' W 085°52'3 5.0
2016-Apr-26 00:00N 45°54' W 085°54'3 6.3 080 / 321009.6 1.9 7.0
2016-Apr-25 23:33N 45°56' W 085°52'0 0.0
2016-Apr-25 22:33N 45°56' W 085°52'3 5.0
2016-Apr-25 22:00N 45°54' W 085°54'3 6.5 100 / 351010.6 1.9 7.1
2016-Apr-25 21:33N 45°56' W 085°52'3 5.0
2016-Apr-25 21:00N 45°54' W 085°54'3 6.5 090 / 391010.6 1.7 7.0
2016-Apr-25 20:33N 45°56' W 085°52'3 5.0
2016-Apr-25 20:00N 45°54' W 085°54'3 6.6 080 / 431009.9 1.2 7.0
2016-Apr-25 19:33N 45°56' W 085°52'0 0.0
2016-Apr-25 18:32N 45°56' W 085°52'3 5.2
2016-Apr-25 18:00N 45°54' W 085°54'3 6.6 090 / 341013.0 1.7 7.1
2016-Apr-25 17:33N 45°56' W 085°52'3 5.0
2016-Apr-25 17:00N 45°54' W 085°54'3 6.2 090 / 341012.7 2.0 7.1
2016-Apr-25 16:32N 45°56' W 085°52'0 0.0
2016-Apr-25 15:29N 45°56' W 085°52'0 0.0
2016-Apr-25 14:33N 45°56' W 085°52'3 5.0
2016-Apr-25 14:00N 45°54' W 085°54'3 6.1 080 / 381014.0 2.1 7.3
2016-Apr-25 13:32N 45°56' W 085°52'3 5.3
2016-Apr-25 13:00N 45°54' W 085°54'3 6.5 090 / 331014.0 2.7 7.4
2016-Apr-25 12:33N 45°56' W 085°52'0 0.0
2016-Apr-25 11:33N 45°56' W 085°52'3 5.0
2016-Apr-25 11:00N 45°54' W 085°54'3 6.5 090 / 311014.7 2.8 7.2
2016-Apr-25 10:33N 45°56' W 085°52'3 5.0
2016-Apr-25 10:00N 45°54' W 085°54'3 6.6 100 / 311014.7 2.9 7.2
2016-Apr-25 09:33N 45°56' W 085°52'0 0.0
2016-Apr-25 08:33N 45°56' W 085°52'3 5.0
2016-Apr-25 08:00N 45°54' W 085°54'3 6.5 090 / 311015.0 2.7 7.3
2016-Apr-25 07:33N 45°56' W 085°52'3 5.0
2016-Apr-25 07:00N 45°54' W 085°54'0 0.0 090 / 271015.7 3.1 7.4
2016-Apr-25 06:00N 45°54' W 085°54'3 4.8 090 / 251016.4 3.6 7.4
2016-Apr-25 05:24N 45°56' W 085°52'3 6.9
2016-Apr-25 05:00N 45°54' W 085°54'3 5.3 090 / 221016.4 4.1 7.4
2016-Apr-25 04:27N 45°56' W 085°52'3 6.1
2016-Apr-25 04:00N 45°54' W 085°54'3 5.1 080 / 221016.7 4.1 7.4
2016-Apr-25 03:26N 45°56' W 085°52'3 6.3
2016-Apr-25 03:00N 45°54' W 085°54'3 6.1 080 / 201016.7 3.7 7.5
2016-Apr-25 02:31N 45°56' W 085°52'3 5.3
2016-Apr-25 02:00N 45°54' W 085°54'3 6.3 080 / 221017.1 3.4 7.7
2016-Apr-25 01:32N 45°56' W 085°52'3 5.1
2016-Apr-25 01:00N 45°54' W 085°54'3 6.5 090 / 201017.4 3.2 8.2
2016-Apr-25 00:33N 45°56' W 085°52'3 5.0
2016-Apr-25 00:00N 45°54' W 085°54'3 6.1 080 / 211017.1 3.4 8.2
2016-Apr-24 23:32N 45°56' W 085°52'3 5.3
2016-Apr-24 23:00N 45°54' W 085°54'3 5.3 080 / 231017.1 3.4 8.3
2016-Apr-24 22:28N 45°56' W 085°52'3 6.0
2016-Apr-24 22:00N 45°54' W 085°54'3 5.9 080 / 251017.7 2.9 8.5
2016-Apr-24 21:31N 45°56' W 085°52'3 5.4
2016-Apr-24 21:00N 45°54' W 085°54'3 6.2 090 / 251018.4 2.5 8.6
2016-Apr-24 20:32N 45°56' W 085°52'0 0.0
2016-Apr-24 19:32N 45°56' W 085°52'3 5.2
2016-Apr-24 19:00N 45°54' W 085°54'3 6.4 090 / 261019.8 3.0 8.8
2016-Apr-24 18:33N 45°56' W 085°52'3 5.0
2016-Apr-24 18:00N 45°54' W 085°54'0 0.0 090 / 221019.1 3.6 8.5
2016-Apr-24 16:00N 45°54' W 085°54'2 5.7 080 / 251019.1 3.9 8.1
2016-Apr-24 15:33N 45°56' W 085°53'2 4.3
2016-Apr-24 15:00N 45°54' W 085°54'715.5 090 / 201019.1 3.4 6.4
2016-Apr-24 14:33N 45°48' W 085°57'610.6
2016-Apr-24 14:00N 45°42' W 086°00'4 8.8 080 / 181018.4 4.0 6.4
2016-Apr-24 13:33N 45°38' W 086°02'4 6.5
2016-Apr-24 13:00N 45°36' W 086°06'715.9 100 / 141018.8 3.6 6.6
2016-Apr-24 12:33N 45°29' W 086°06'10 9.8
2016-Apr-24 11:33N 45°20' W 086°09'2610.2
2016-Apr-24 09:00N 44°54' W 086°18'6 6.0 130 / 111018.4 5.8 6.8
2016-Apr-24 08:00N 44°48' W 086°18'1312.7 070 / 101018.4 5.5 7.1
2016-Apr-24 07:00N 44°36' W 086°24'1312.7 130 / 101018.4 5.7 7.1
2016-Apr-24 06:00N 44°24' W 086°30'19 9.3 110 / 111019.1 5.6 7.0
2016-Apr-24 04:00N 44°06' W 086°36'1212.0 090 / 131019.4 6.1 7.0
2016-Apr-24 03:00N 43°54' W 086°36'6 6.0 080 / 111019.8 6.0 7.5
2016-Apr-24 02:00N 43°48' W 086°36'1212.0 040 / 131019.8 6.6 7.0
2016-Apr-24 01:00N 43°36' W 086°36'7 7.4 030 / 141019.4 6.1 6.9
2016-Apr-24 00:00N 43°30' W 086°30'1212.0 010 / 121019.1 7.2 7.3
2016-Apr-23 23:00N 43°18' W 086°30'1110.6 1019.4 6.2 8.4
2016-Apr-23 22:00N 43°12' W 086°18'7 7.4 290 / 101020.1 9.2 14.2
2016-Apr-23 21:00N 43°18' W 086°12'0 0.0 240 / 71020.8 12.4 14.2
2016-Apr-23 18:00N 43°18' W 086°12'14 4.8 250 / 111022.8 10.0 13.5
2016-Apr-23 15:00N 43°24' W 086°30'24 8.1 290 / 81024.5 5.2 7.8
2016-Apr-23 12:00N 43°48' W 086°36'6 6.0 050 / 71023.5 3.9 7.0
2016-Apr-23 11:00N 43°54' W 086°36'1212.0 040 / 71023.5 3.2 6.7
2016-Apr-23 10:00N 44°06' W 086°36'1312.7 030 / 81022.8 3.2 6.9
2016-Apr-23 09:00N 44°18' W 086°30'7 7.4 040 / 101022.8 3.3 6.9
2016-Apr-23 08:00N 44°24' W 086°24'6 6.0 030 / 91022.8 3.3 6.9
2016-Apr-23 07:00N 44°30' W 086°24'916.5 040 / 91022.8 3.4 7.1
2016-Apr-23 06:28N 44°38' W 086°21'4 9.0
2016-Apr-23 06:00N 44°42' W 086°18'510.5 040 / 121022.8 3.2 7.5
2016-Apr-23 05:33N 44°47' W 086°19'2 2.7
2016-Apr-23 05:00N 44°48' W 086°18'818.1 030 / 171023.2 3.3 6.9
2016-Apr-23 04:33N 44°56' W 086°16'4 7.8
2016-Apr-23 04:00N 45°00' W 086°18'613.1 020 / 171022.8 4.1 6.8
2016-Apr-23 03:33N 45°05' W 086°14'712.7
2016-Apr-23 03:00N 45°12' W 086°12'2 4.8 010 / 171022.8 3.4 6.9
2016-Apr-23 02:33N 45°14' W 086°12'9 9.4
2016-Apr-23 01:33N 45°23' W 086°09'9 9.3
2016-Apr-23 00:33N 45°32' W 086°06'9 9.2
2016-Apr-22 23:33N 45°41' W 086°03'2 4.4
2016-Apr-22 23:00N 45°42' W 086°00'715.4 350 / 201021.8 5.1 6.4
2016-Apr-22 22:33N 45°46' W 085°52'4 6.4
2016-Apr-22 22:00N 45°48' W 085°48'512.6 350 / 171021.5 6.2 6.3
2016-Apr-22 21:33N 45°51' W 085°41'9 8.6
2016-Apr-22 20:33N 45°53' W 085°29'4 6.6
2016-Apr-22 20:00N 45°54' W 085°24'512.2 350 / 211019.8 6.4 6.7
2016-Apr-22 19:33N 45°53' W 085°17'3 6.1
2016-Apr-22 19:00N 45°54' W 085°12'614.1 310 / 111019.8 5.6 6.3
2016-Apr-22 18:33N 45°51' W 085°04'4 7.8
2016-Apr-22 18:00N 45°48' W 085°00'614.3 310 / 161019.4 9.2 6.1
2016-Apr-22 17:33N 45°50' W 084°51'9 8.6
2016-Apr-22 16:33N 45°50' W 084°39'9 9.0
2016-Apr-22 15:33N 45°53' W 084°27'611.2
2016-Apr-22 15:00N 45°54' W 084°18'3 7.3 020 / 131018.1 4.7 5.9
2016-Apr-22 14:33N 45°56' W 084°14'3 3.4
2016-Apr-22 13:33N 45°59' W 084°17'1 2.5
2016-Apr-22 13:00N 46°00' W 084°18'1 3.2 010 / 91016.7 3.2 8.7
2016-Apr-22 12:33N 45°59' W 084°17'1 2.5
2016-Apr-22 12:00N 46°00' W 084°18'1 3.2 350 / 81016.4 3.4 8.7
2016-Apr-22 11:33N 45°59' W 084°17'1 2.5
2016-Apr-22 11:00N 46°00' W 084°18'1 3.2 010 / 101014.7 3.9 9.0
2016-Apr-22 10:33N 45°59' W 084°17'1 2.5
2016-Apr-22 10:00N 46°00' W 084°18'1 3.2 360 / 61013.7 5.0 9.3
2016-Apr-22 09:33N 45°59' W 084°17'1 2.5
2016-Apr-22 09:00N 46°00' W 084°18'1 3.2 010 / 61013.0 5.7 9.1
2016-Apr-22 08:33N 45°59' W 084°17'1 2.5
2016-Apr-22 08:00N 46°00' W 084°18'1 3.3 010 / 61013.0 6.9 9.6
2016-Apr-22 07:33N 45°59' W 084°17'1 2.5
2016-Apr-22 07:00N 46°00' W 084°18'1 3.2 010 / 41012.3 7.2 9.7
2016-Apr-22 06:33N 45°59' W 084°17'1 2.6
2016-Apr-22 06:00N 46°00' W 084°18'1 3.3 300 / 91011.6 5.6 9.8
2016-Apr-22 05:33N 45°59' W 084°17'1 2.5
2016-Apr-22 05:00N 46°00' W 084°18'1 3.3 230 / 21011.3 5.2 9.8
2016-Apr-22 04:33N 45°59' W 084°17'0 0.0
2016-Apr-22 03:33N 45°59' W 084°17'1 2.5
2016-Apr-22 03:00N 46°00' W 084°18'1 3.2 1011.0 6.5 9.8
2016-Apr-22 02:33N 45°59' W 084°17'1 2.5
2016-Apr-22 02:00N 46°00' W 084°18'1 3.2 030 / 31011.0 5.8 9.5
2016-Apr-22 01:33N 45°59' W 084°17'1 2.5
2016-Apr-22 01:00N 46°00' W 084°18'613.3 290 / 21010.3 5.8 7.4
2016-Apr-22 00:33N 45°55' W 084°13'5 8.8
2016-Apr-22 00:00N 45°54' W 084°06'613.4 060 / 131009.3 3.4 5.6
2016-Apr-21 23:33N 45°49' W 084°02'610.6
2016-Apr-21 23:00N 45°48' W 083°54'1312.7 020 / 61009.3 3.1 5.8
2016-Apr-21 22:00N 45°36' W 083°48'1010.3 160 / 61008.6 4.1 5.7
2016-Apr-21 21:00N 45°30' W 083°36'1010.3 140 / 171008.6 6.9 5.9
2016-Apr-21 20:00N 45°24' W 083°24'17 8.7 150 / 191009.6 8.9 5.8
2016-Apr-21 18:00N 45°12' W 083°06'1212.0 200 / 81011.0 5.1 6.1
2016-Apr-21 17:00N 45°00' W 083°06'1312.7 180 / 101011.6 4.9 6.0
2016-Apr-21 16:00N 44°48' W 083°00'7 7.4 150 / 121012.3 6.4 6.1
2016-Apr-21 15:00N 44°42' W 082°54'1312.7 170 / 61013.0 4.9 6.2
2016-Apr-21 14:00N 44°30' W 082°48'6 6.0 120 / 121013.3 4.6 6.0
2016-Apr-21 13:00N 44°24' W 082°48'3310.9 140 / 51013.7 8.3 5.8
2016-Apr-21 10:00N 43°54' W 082°30'1212.0 220 / 71015.7 9.7 6.0
2016-Apr-21 09:00N 43°42' W 082°30'18 9.0 160 / 121015.4 9.6 6.2
2016-Apr-21 07:00N 43°24' W 082°30'1312.8 120 / 41015.7 7.2 6.7
2016-Apr-21 06:00N 43°12' W 082°24'4 7.8 170 / 41016.4 9.4 7.2
2016-Apr-21 05:27N 43°08' W 082°25'2 4.3
2016-Apr-21 05:00N 43°06' W 082°24'6 6.0 160 / 11017.4 8.9 8.7
2016-Apr-21 04:00N 43°00' W 082°24'1312.8 140 / 91018.1 12.5 8.8
2016-Apr-21 03:00N 42°48' W 082°30'2 4.7 130 / 61018.4 12.4 9.0
2016-Apr-21 02:32N 42°46' W 082°28'5 8.3
2016-Apr-21 02:00N 42°42' W 082°30'3 6.7 130 / 101019.1 12.3 9.0
2016-Apr-21 01:33N 42°39' W 082°31'3 5.6
2016-Apr-21 01:00N 42°36' W 082°30'612.3 130 / 71019.4 13.7 8.7
2016-Apr-21 00:30N 42°33' W 082°37'5 9.1
2016-Apr-21 00:00N 42°30' W 082°42'   140 / 161019.2 12.9 9.0

Dump ship's entire track history